createdAt,value
2022-10-05T00:01:50.090Z,7.36
2022-10-05T00:04:53.849Z,7.33
2022-10-05T00:07:57.165Z,7.31
2022-10-05T00:11:00.515Z,7.24
2022-10-05T00:14:07.919Z,7.24
2022-10-05T00:17:14.078Z,7.21
2022-10-05T00:20:19.374Z,7.17
2022-10-05T00:23:25.170Z,7.17
2022-10-05T00:26:31.988Z,7.14
2022-10-05T00:29:34.785Z,7.12
2022-10-05T00:32:37.044Z,7.11
2022-10-05T00:35:40.079Z,7.09
2022-10-05T00:38:43.135Z,7.05
2022-10-05T00:41:45.672Z,7.01
2022-10-05T00:44:47.975Z,6.98
2022-10-05T00:47:57.390Z,6.95
2022-10-05T00:51:07.685Z,6.88
2022-10-05T00:54:19.792Z,6.86
2022-10-05T00:57:22.199Z,6.85
2022-10-05T01:00:27.253Z,6.90
2022-10-05T01:03:38.302Z,6.92
2022-10-05T01:06:59.070Z,6.87
2022-10-05T01:10:11.624Z,6.83
2022-10-05T01:13:20.845Z,6.83
2022-10-05T01:16:29.420Z,6.84
2022-10-05T01:19:44.907Z,6.83
2022-10-05T01:22:47.165Z,6.81
2022-10-05T01:26:04.815Z,6.77
2022-10-05T01:29:24.029Z,6.71
2022-10-05T01:32:29.384Z,6.68
2022-10-05T01:35:50.610Z,6.64
2022-10-05T01:39:02.268Z,6.63
2022-10-05T01:42:13.881Z,6.61
2022-10-05T01:45:35.219Z,6.59
2022-10-05T01:48:57.139Z,6.61
2022-10-05T01:52:07.643Z,6.63
2022-10-05T01:55:16.116Z,6.57
2022-10-05T01:58:34.930Z,6.53
2022-10-05T02:01:43.217Z,6.51
2022-10-05T02:05:02.670Z,6.51
2022-10-05T02:08:08.533Z,6.48
2022-10-05T02:11:13.218Z,6.44
2022-10-05T02:14:19.364Z,6.43
2022-10-05T02:17:32.632Z,6.39
2022-10-05T02:20:38.178Z,6.37
2022-10-05T02:23:42.950Z,6.35
2022-10-05T02:26:45.701Z,6.31
2022-10-05T02:29:49.195Z,6.30
2022-10-05T02:32:55.483Z,6.30
2022-10-05T02:36:17.767Z,6.34
2022-10-05T02:39:36.897Z,6.32
2022-10-05T02:42:59.935Z,6.26
2022-10-05T02:46:09.633Z,6.17
2022-10-05T02:49:30.981Z,6.18
2022-10-05T02:52:33.387Z,6.13
2022-10-05T02:55:47.939Z,6.15
2022-10-05T02:59:08.391Z,6.15
2022-10-05T03:02:13.917Z,6.24
2022-10-05T03:05:36.672Z,6.22
2022-10-05T03:08:46.568Z,6.22
2022-10-05T03:12:02.833Z,6.15
2022-10-05T03:15:14.979Z,6.09
2022-10-05T03:18:36.130Z,6.11
2022-10-05T03:21:57.855Z,6.09
2022-10-05T03:25:15.632Z,6.10
2022-10-05T03:28:24.685Z,6.10
2022-10-05T03:31:42.311Z,6.10
2022-10-05T03:34:53.534Z,6.07
2022-10-05T03:38:11.097Z,6.02
2022-10-05T03:41:32.888Z,6.02
2022-10-05T03:44:41.349Z,5.98
2022-10-05T03:47:52.363Z,6.02
2022-10-05T03:50:54.786Z,6.10
2022-10-05T03:54:01.275Z,6.13
2022-10-05T03:57:23.830Z,6.08
2022-10-05T04:00:29.236Z,6.08
2022-10-05T04:03:41.805Z,5.99
2022-10-05T04:06:48.026Z,5.95
2022-10-05T04:09:52.713Z,5.87
2022-10-05T04:13:02.331Z,5.87
2022-10-05T04:16:07.898Z,5.84
2022-10-05T04:19:23.298Z,5.84
2022-10-05T04:22:35.821Z,5.79
2022-10-05T04:25:43.626Z,5.77
2022-10-05T04:28:52.201Z,5.77
2022-10-05T04:32:08.832Z,5.75
2022-10-05T04:35:30.548Z,5.73
2022-10-05T04:38:39.475Z,5.72
2022-10-05T04:41:42.225Z,5.71
2022-10-05T04:44:48.132Z,5.72
2022-10-05T04:47:57.685Z,5.74
2022-10-05T04:51:12.417Z,5.70
2022-10-05T04:54:35.393Z,5.74
2022-10-05T04:57:56.206Z,5.72
2022-10-05T05:01:02.153Z,5.72
2022-10-05T05:04:23.459Z,5.81
2022-10-05T05:07:44.737Z,5.84
2022-10-05T05:11:05.907Z,5.88
2022-10-05T05:14:34.816Z,5.91
2022-10-05T05:17:46.092Z,5.96
2022-10-05T05:20:57.176Z,5.97
2022-10-05T05:24:05.335Z,6.01
2022-10-05T05:27:26.911Z,6.11
2022-10-05T05:30:35.724Z,6.22
2022-10-05T05:33:56.909Z,6.32
2022-10-05T05:37:32.165Z,6.38
2022-10-05T05:40:40.214Z,6.38
2022-10-05T05:44:01.356Z,6.48
2022-10-05T05:47:09.851Z,6.55
2022-10-05T05:50:13.290Z,6.71
2022-10-05T05:53:19.196Z,6.88
2022-10-05T05:56:27.346Z,6.99
2022-10-05T05:59:42.599Z,7.14
2022-10-05T06:02:52.834Z,7.27
2022-10-05T06:05:58.722Z,7.42
2022-10-05T06:09:04.306Z,7.61
2022-10-05T06:12:12.063Z,7.89
2022-10-05T06:15:28.455Z,8.62
2022-10-05T06:18:32.838Z,10.47
2022-10-05T06:21:55.500Z,10.58
2022-10-05T06:24:58.535Z,10.31
2022-10-05T06:28:16.182Z,9.90
2022-10-05T06:31:42.737Z,10.10
2022-10-05T06:34:54.320Z,11.28
2022-10-05T06:38:05.140Z,11.17
2022-10-05T06:41:10.669Z,10.87
2022-10-05T06:44:21.896Z,10.34
2022-10-05T06:47:37.204Z,10.10
2022-10-05T06:50:45.839Z,9.88
2022-10-05T06:53:57.867Z,9.89
2022-10-05T06:57:03.532Z,10.02
2022-10-05T07:00:16.114Z,10.05
2022-10-05T07:03:21.840Z,10.14
2022-10-05T07:06:43.528Z,10.30
2022-10-05T07:09:58.419Z,10.53
2022-10-05T07:13:15.040Z,10.76
2022-10-05T07:16:26.390Z,10.89
2022-10-05T07:19:37.675Z,10.72
2022-10-05T07:22:46.182Z,10.51
2022-10-05T07:25:52.944Z,10.63
2022-10-05T07:28:56.113Z,10.80
2022-10-05T07:32:14.491Z,10.91
2022-10-05T07:35:35.871Z,11.06
2022-10-05T07:38:38.162Z,11.17
2022-10-05T07:41:47.624Z,11.28
2022-10-05T07:44:55.364Z,11.45
2022-10-05T07:48:00.903Z,11.50
2022-10-05T07:51:27.174Z,11.73
2022-10-05T07:54:32.866Z,11.79
2022-10-05T07:57:50.043Z,12.18
2022-10-05T08:01:00.455Z,12.41
2022-10-05T08:04:12.560Z,12.40
2022-10-05T08:07:17.399Z,12.55
2022-10-05T08:10:25.890Z,12.78
2022-10-05T08:13:34.638Z,13.03
2022-10-05T08:16:38.350Z,13.14
2022-10-05T08:19:46.854Z,13.57
2022-10-05T08:22:53.544Z,14.22
2022-10-05T08:25:55.822Z,14.12
2022-10-05T08:29:17.172Z,14.28
2022-10-05T08:32:38.340Z,14.46
2022-10-05T08:35:45.520Z,14.74
2022-10-05T08:38:47.903Z,14.98
2022-10-05T08:42:16.619Z,15.25
2022-10-05T08:45:30.979Z,15.64
2022-10-05T08:48:33.742Z,15.96
2022-10-05T08:51:37.745Z,15.99
2022-10-05T08:54:43.618Z,15.74
2022-10-05T08:57:46.596Z,15.71
2022-10-05T09:00:56.020Z,15.51
2022-10-05T09:04:10.603Z,15.26
2022-10-05T09:07:19.115Z,15.40
2022-10-05T09:10:21.467Z,15.65
2022-10-05T09:13:24.031Z,15.76
2022-10-05T09:16:45.547Z,15.98
2022-10-05T09:19:54.188Z,16.11
2022-10-05T09:23:14.152Z,16.28
2022-10-05T09:26:49.264Z,16.44
2022-10-05T09:30:00.740Z,16.72
2022-10-05T09:33:16.293Z,16.89
2022-10-05T09:36:53.954Z,17.08
2022-10-05T09:40:12.439Z,17.23
2022-10-05T09:43:20.399Z,17.43
2022-10-05T09:46:40.793Z,17.71
2022-10-05T09:49:51.982Z,17.93
2022-10-05T09:53:12.748Z,18.02
2022-10-05T09:56:15.092Z,17.94
2022-10-05T09:59:33.015Z,17.63
2022-10-05T10:02:38.813Z,17.19
2022-10-05T10:05:41.531Z,16.90
2022-10-05T10:08:47.013Z,16.91
2022-10-05T10:11:59.808Z,17.00
2022-10-05T10:15:13.883Z,17.37
2022-10-05T10:18:35.406Z,17.57
2022-10-05T10:21:56.668Z,17.86
2022-10-05T10:24:59.213Z,18.13
2022-10-05T10:28:31.008Z,18.31
2022-10-05T10:31:58.077Z,18.46
2022-10-05T10:35:00.371Z,18.47
2022-10-05T10:38:19.907Z,18.32
2022-10-05T10:41:27.939Z,18.03
2022-10-05T10:44:33.282Z,17.83
2022-10-05T10:47:40.429Z,17.83
2022-10-05T10:50:49.103Z,17.77
2022-10-05T10:54:12.438Z,18.12
2022-10-05T10:57:15.445Z,18.30
2022-10-05T11:00:22.984Z,18.47
2022-10-05T11:03:44.552Z,18.22
2022-10-05T11:07:16.186Z,18.16
2022-10-05T11:10:21.620Z,18.08
2022-10-05T11:13:26.955Z,17.88
2022-10-05T11:16:32.594Z,17.85
2022-10-05T11:20:02.520Z,18.23
2022-10-05T11:23:03.400Z,18.34
2022-10-05T11:26:11.782Z,18.24
2022-10-05T11:29:32.950Z,18.34
2022-10-05T11:32:50.686Z,18.22
2022-10-05T11:35:56.252Z,18.26
2022-10-05T11:39:04.055Z,18.23
2022-10-05T11:42:29.611Z,18.34
2022-10-05T11:45:40.035Z,18.34
2022-10-05T11:48:46.948Z,18.43
2022-10-05T11:51:52.629Z,18.48
2022-10-05T11:55:14.872Z,18.56
2022-10-05T11:58:25.420Z,18.83
2022-10-05T12:01:35.981Z,19.06
2022-10-05T12:04:41.631Z,19.11
2022-10-05T12:07:54.593Z,19.20
2022-10-05T12:11:09.986Z,19.21
2022-10-05T12:14:18.698Z,19.04
2022-10-05T12:17:33.647Z,18.98
2022-10-05T12:20:46.230Z,19.21
2022-10-05T12:23:58.863Z,19.17
2022-10-05T12:27:05.104Z,19.16
2022-10-05T12:30:18.161Z,19.33
2022-10-05T12:33:34.030Z,19.36
2022-10-05T12:37:05.874Z,19.32
2022-10-05T12:40:37.880Z,19.18
2022-10-05T12:43:46.914Z,19.15
2022-10-05T12:47:04.673Z,19.16
2022-10-05T12:50:15.211Z,19.23
2022-10-05T12:53:23.633Z,19.13
2022-10-05T12:56:29.159Z,19.06
2022-10-05T12:59:43.533Z,19.18
2022-10-05T13:02:47.910Z,19.05
2022-10-05T13:06:04.071Z,19.10
2022-10-05T13:09:18.411Z,18.92
2022-10-05T13:12:20.765Z,18.66
2022-10-05T13:15:35.571Z,18.58
2022-10-05T13:18:50.741Z,18.40
2022-10-05T13:21:59.306Z,18.46
2022-10-05T13:25:08.016Z,18.59
2022-10-05T13:28:16.004Z,18.56
2022-10-05T13:31:18.269Z,18.57
2022-10-05T13:34:36.362Z,18.78
2022-10-05T13:37:43.285Z,18.67
2022-10-05T13:40:45.765Z,18.82
2022-10-05T13:44:07.058Z,18.71
2022-10-05T13:47:21.819Z,18.83
2022-10-05T13:50:28.466Z,18.68
2022-10-05T13:53:45.186Z,18.58
2022-10-05T13:56:56.515Z,18.63
2022-10-05T14:00:03.735Z,18.66
2022-10-05T14:03:27.433Z,18.68
2022-10-05T14:06:30.958Z,18.56
2022-10-05T14:09:34.930Z,18.54
2022-10-05T14:12:40.446Z,18.54
2022-10-05T14:15:55.289Z,18.63
2022-10-05T14:19:09.041Z,18.43
2022-10-05T14:22:12.975Z,18.41
2022-10-05T14:25:19.922Z,18.47
2022-10-05T14:28:25.350Z,18.49
2022-10-05T14:31:29.511Z,18.46
2022-10-05T14:34:35.668Z,18.32
2022-10-05T14:37:47.205Z,18.25
2022-10-05T14:41:06.194Z,18.33
2022-10-05T14:44:08.780Z,18.17
2022-10-05T14:47:19.918Z,18.15
2022-10-05T14:50:29.483Z,18.09
2022-10-05T14:53:40.394Z,18.00
2022-10-05T14:56:50.097Z,17.93
2022-10-05T15:00:02.207Z,17.78
2022-10-05T15:03:20.853Z,17.78
2022-10-05T15:06:43.578Z,17.65
2022-10-05T15:09:55.642Z,17.61
2022-10-05T15:13:11.474Z,17.48
2022-10-05T15:16:19.743Z,17.39
2022-10-05T15:19:31.825Z,17.25
2022-10-05T15:22:48.161Z,17.12
2022-10-05T15:25:56.613Z,17.03
2022-10-05T15:29:04.796Z,16.95
2022-10-05T15:32:16.491Z,16.78
2022-10-05T15:35:28.035Z,16.72
2022-10-05T15:38:48.896Z,16.67
2022-10-05T15:41:55.271Z,16.66
2022-10-05T15:44:57.501Z,16.52
2022-10-05T15:48:05.924Z,16.42
2022-10-05T15:51:17.630Z,16.29
2022-10-05T15:54:54.517Z,16.33
2022-10-05T15:58:08.423Z,16.19
2022-10-05T16:01:12.364Z,16.05
2022-10-05T16:04:15.324Z,15.92
2022-10-05T16:07:39.128Z,15.85
2022-10-05T16:10:43.952Z,15.74
2022-10-05T16:13:53.082Z,15.68
2022-10-05T16:17:07.875Z,15.52
2022-10-05T16:20:15.115Z,15.47
2022-10-05T16:23:36.481Z,15.34
2022-10-05T16:26:38.767Z,15.23
2022-10-05T16:29:53.297Z,15.10
2022-10-05T16:32:55.628Z,15.04
2022-10-05T16:36:04.874Z,14.94
2022-10-05T16:39:11.656Z,14.83
2022-10-05T16:42:22.776Z,14.76
2022-10-05T16:45:29.553Z,14.68
2022-10-05T16:48:37.724Z,14.65
2022-10-05T16:52:00.271Z,14.57
2022-10-05T16:55:06.733Z,14.47
2022-10-05T16:58:16.846Z,14.38
2022-10-05T17:01:26.268Z,14.29
2022-10-05T17:04:31.947Z,14.32
2022-10-05T17:07:35.051Z,14.22
2022-10-05T17:10:41.208Z,14.13
2022-10-05T17:13:49.527Z,14.06
2022-10-05T17:16:57.821Z,14.09
2022-10-05T17:20:07.379Z,14.05
2022-10-05T17:23:31.248Z,13.90
2022-10-05T17:26:33.991Z,13.92
2022-10-05T17:29:47.720Z,13.82
2022-10-05T17:32:56.308Z,13.71
2022-10-05T17:36:04.605Z,13.66
2022-10-05T17:39:13.294Z,13.62
2022-10-05T17:42:35.648Z,13.53
2022-10-05T17:45:38.206Z,13.42
2022-10-05T17:48:42.615Z,13.36
2022-10-05T17:52:03.821Z,13.35
2022-10-05T17:55:35.966Z,13.30
2022-10-05T17:58:44.866Z,13.20
2022-10-05T18:02:07.122Z,13.11
2022-10-05T18:05:16.216Z,13.04
2022-10-05T18:08:26.841Z,12.92
2022-10-05T18:11:35.286Z,12.83
2022-10-05T18:14:55.732Z,12.74
2022-10-05T18:18:19.318Z,12.68
2022-10-05T18:21:32.867Z,12.64
2022-10-05T18:25:03.745Z,12.60
2022-10-05T18:28:12.771Z,12.54
2022-10-05T18:31:34.238Z,12.48
2022-10-05T18:34:43.880Z,12.40
2022-10-05T18:37:56.241Z,12.37
2022-10-05T18:41:09.010Z,12.33
2022-10-05T18:44:14.505Z,12.28
2022-10-05T18:47:29.181Z,12.19
2022-10-05T18:50:44.995Z,12.13
2022-10-05T18:53:47.440Z,12.08
2022-10-05T18:56:51.291Z,12.06
2022-10-05T18:59:59.057Z,12.02
2022-10-05T19:03:08.253Z,11.97
2022-10-05T19:06:24.316Z,11.91
2022-10-05T19:09:31.484Z,11.84
2022-10-05T19:12:41.657Z,11.79
2022-10-05T19:16:03.378Z,11.72
2022-10-05T19:19:30.920Z,11.68
2022-10-05T19:22:42.295Z,11.60
2022-10-05T19:25:51.923Z,11.56
2022-10-05T19:29:01.409Z,11.52
2022-10-05T19:32:18.683Z,11.49
2022-10-05T19:35:33.081Z,11.43
2022-10-05T19:38:41.455Z,11.40
2022-10-05T19:41:50.665Z,11.39
2022-10-05T19:45:09.197Z,11.36
2022-10-05T19:48:21.104Z,11.36
2022-10-05T19:51:31.506Z,11.30
2022-10-05T19:54:34.977Z,11.30
2022-10-05T19:57:45.290Z,11.30
2022-10-05T20:00:53.873Z,11.25
2022-10-05T20:03:57.986Z,11.26
2022-10-05T20:07:01.939Z,11.21
2022-10-05T20:10:19.921Z,11.22
2022-10-05T20:13:22.806Z,11.13
2022-10-05T20:19:52.219Z,11.11
2022-10-05T20:23:14.736Z,11.10
2022-10-05T20:26:55.057Z,11.09
2022-10-05T20:29:58.070Z,11.05
2022-10-05T20:33:01.616Z,10.99
2022-10-05T20:36:04.308Z,10.98
2022-10-05T20:39:06.619Z,10.93
2022-10-05T20:42:09.542Z,10.90
2022-10-05T20:45:12.526Z,10.89
2022-10-05T20:48:16.634Z,10.85
2022-10-05T20:51:19.314Z,10.82
2022-10-05T20:54:22.602Z,10.80
2022-10-05T20:57:25.178Z,10.75
2022-10-05T21:00:47.937Z,10.70
2022-10-05T21:03:53.275Z,10.69
2022-10-05T21:06:55.828Z,10.67
2022-10-05T21:09:58.074Z,10.62
2022-10-05T21:13:02.771Z,10.55
2022-10-05T21:16:07.700Z,10.52
2022-10-05T21:19:12.300Z,10.51
2022-10-05T21:22:14.697Z,10.45
2022-10-05T21:25:17.412Z,10.35
2022-10-05T21:28:19.886Z,10.27
2022-10-05T21:31:22.720Z,10.27
2022-10-05T21:34:24.973Z,10.21
2022-10-05T21:37:27.641Z,10.18
2022-10-05T21:40:29.858Z,10.12
2022-10-05T21:43:32.453Z,10.08
2022-10-05T21:46:35.921Z,10.04
2022-10-05T21:49:38.556Z,9.99
2022-10-05T21:52:40.983Z,9.98
2022-10-05T21:55:45.299Z,9.93
2022-10-05T21:58:48.067Z,9.88
2022-10-05T22:01:50.679Z,9.83
2022-10-05T22:04:53.318Z,9.83
2022-10-05T22:07:55.539Z,9.81
2022-10-05T22:11:08.621Z,9.79
2022-10-05T22:14:14.229Z,9.77
2022-10-05T22:17:20.653Z,9.81
2022-10-05T22:20:24.553Z,9.80
2022-10-05T22:23:27.075Z,9.83
2022-10-05T22:26:29.636Z,9.80
2022-10-05T22:29:32.243Z,9.80
2022-10-05T22:32:34.436Z,9.81
2022-10-05T22:35:37.161Z,9.78
2022-10-05T22:38:40.359Z,9.75
2022-10-05T22:41:42.974Z,9.77
2022-10-05T22:44:45.284Z,9.75
2022-10-05T22:47:48.302Z,9.74
2022-10-05T22:50:51.868Z,9.70
2022-10-05T22:53:54.458Z,9.68
2022-10-05T22:56:56.776Z,9.67
2022-10-05T22:59:59.356Z,9.69
2022-10-05T23:03:01.612Z,9.69
2022-10-05T23:06:09.047Z,9.74
2022-10-05T23:09:11.618Z,9.82
2022-10-05T23:12:14.389Z,9.81
2022-10-05T23:15:16.706Z,9.81
2022-10-05T23:18:19.259Z,9.80
2022-10-05T23:21:22.638Z,9.85
2022-10-05T23:24:25.176Z,9.89
2022-10-05T23:27:27.406Z,9.90
2022-10-05T23:30:30.048Z,9.91
2022-10-05T23:33:32.796Z,9.87
2022-10-05T23:36:35.970Z,9.87
2022-10-05T23:39:38.242Z,9.87
2022-10-05T23:42:41.142Z,9.87
2022-10-05T23:45:47.102Z,9.82
2022-10-05T23:48:50.403Z,9.78
2022-10-05T23:51:52.711Z,9.81
2022-10-05T23:54:55.253Z,9.81
2022-10-05T23:57:57.534Z,9.86
